donderdag 2 juli 2020 | Home | Bestenlijsten | Bestenlijsten NL | Calculators | Nieuws | Records | Uitslagen | VZA Ranglijsten | Weer |
 
Recent nieuws meer nieuws
20-06: Staf Dobbelaere: een schaap met vijf poten?
09-06: Woordenstrijd zonder koek
02-06: Terugblik op het NK marathon 1964 in Vlissingen
28-05: Is snelheid een relatief begrip? Maar dan op herhaling
19-05: Snelheid een relatief begrip?
06-05: Mag huidig niveau hardlopen zomaar vergeleken worden met dat van de jaren 70?
 
Zoek tenminste met 3 tekens van wedstrijd, datum, plaats of atleet

41e Mosselloop

Westenschouwen, zaterdag 8 november 2008 - Organisatie: Delta Sport
8.05 km
PltsNaam
Tijdkm/umin/kmm/secgap
1  Michel van der KleinPAC28.27minMse   16.977  3:324.72-
2  Pascal van TroostHaag Atletiek28.47minMse   16.781  3:354.66+0:20
3  Joost de KlerkPhanos29.24minMse   16.429  3:394.56+0:57
4  Maarten MortelmansDuffel30.03minMse   16.073  3:444.46+1:36
5  Arjan BeijeDelta Sport30.37minMse   15.776  3:484.38+2:10
6  Jack HopmansSpado31.02minM35   15.564  3:514.32+2:35
7  Wim van SparrentakDynamica31.05minM35   15.539  3:524.32+2:38
8  Ron van der GraafPAC31.09minMse   15.506  3:524.31+2:42
9  Marco BarendregtPAC31.46minMse   15.205  3:574.22+3:19
10  Henri HavingaAV4031.48minM45   15.189  3:574.22+3:21
11  Ronnie OvergaauwDynamica31.56minMse   15.125  3:584.20+3:29
12  Edwin StolkSommelsdijk31.59minMse   15.102  3:584.19+3:32
13  Bob HekkingPAC32.06minMse   15.047  3:594.18+3:39
14  Jan GuiljamWemeldinge32.23minM45   14.915  4:014.14+3:56
15  Henk KerkhofHoogvliet32.27minM35   14.884  4:024.13+4:00
16  Michel van de BosDelta Sport32.30minM35   14.862  4:024.13+4:03
17  Pieter KlemSommelsdijk32.33minMse   14.839  4:034.12+4:06
18  Marc RiemensDynamica32.45minM35   14.748  4:044.10+4:18
20  Erik KokDynamica32.56minM35   14.666  4:054.07+4:29
21  Wilko de VosAV'5633.22minM45   14.476  4:094.02+4:55
22  Leo van der HoevenSpirit33.24minM45   14.461  4:094.02+4:57
23  Jaap van de BokSommelsdijk33.35minM45   14.382  4:104.00+5:08
24  Erik PoppeDynamica33.40minM35   14.347  4:113.99+5:13
25  Peter van LimbergenAV'5633.47minM35   14.297  4:123.97+5:20
27  Sjaak BrouwerDynamica34.06minM35   14.164  4:143.93+5:39
28  Eric KandelPassaat34.09minM45   14.143  4:153.93+5:42
29  Jan van GentSpirit34.18minM45   14.082  4:163.91+5:51
30  Marius BesuijenDynamica34.31minM45   13.993  4:173.89+6:04
31  Archie StaalDelta Sport34.36minM35   13.960  4:183.88+6:09
33  Han van AchterbergDelta Sport34.43minM45   13.913  4:193.86+6:16
35  Martin VoorduinPAC35.08minMse   13.748  4:223.82+6:41
36  Rinus WitteDynamica35.13minM45   13.715  4:223.81+6:46
37  Joop LasseurDelta Sport35.16minM65   13.696  4:233.80+6:49
38  Kees van BlooisSpirit35.19minM45   13.676  4:233.80+6:52
39  Eddy SmitDelta Sport35.35minM55   13.574  4:253.77+7:08
42  Manfred MeulmeesterDynamica35.57minM35   13.435  4:283.73+7:30
44  Arjo VerhageDynamica36.13minM35   13.336  4:303.70+7:46
46  Piet van MourikDelta Sport36.26minM45   13.257  4:323.68+7:59
47  Fer BouwensDelta Sport36.35minM45   13.203  4:333.67+8:08
48  Martin PruijsersDynamica36.37minM35   13.191  4:333.66+8:10
49  Ron DellebekeDynamica36.39minM45   13.179  4:333.66+8:12
51  Gerard SminkTriathlon36.45minM55   13.143  4:343.65+8:18
53  Peter VaderDelta Sport36.48minM45   13.125  4:343.65+8:21
54  Charles VermeulenKapelle-Biezelinge36.49minM55   13.119  4:343.64+8:22
57  Leo DaleboutDynamica37.11minM45   12.990  4:373.61+8:44
58  Huub BeelenAV'5637.16minM45   12.961  4:383.60+8:49
59  Remco KapteijnAV'5637.18minM35   12.949  4:383.60+8:51
60  Jos GelukDelta Sport37.21minM45   12.932  4:383.59+8:54
62  Henk LousDynamica37.30minM45   12.880  4:403.58+9:03
63  Leon de MunnikDelta Sport37.33minM35   12.863  4:403.57+9:06
65  Robert KraaijenbrinkDelta Sport37.38minM35   12.834  4:403.57+9:11
66  Wim TempelaarDynamica37.40minM55   12.823  4:413.56+9:13
67  Jan de JongParthenon37.42minM55   12.812  4:413.56+9:15
68  Jan KuikenPAC37.44minMse   12.800  4:413.56+9:17
70  Leonie TonDelta Sport37.50minVse   12.767  4:423.55+9:23
72  John GuequierreDynamica37.59minM55   12.716  4:433.53+9:32
77  John RosmolenSpirit38.56minM45   12.406  4:503.45+10:29
78  Robin BotmanDynamica39.02minMse   12.374  4:513.44+10:35
79  Eric van RemortelAV'5639.09minM45   12.337  4:523.43+10:42
80  Jack van AspertDynamica39.12minM45   12.321  4:523.42+10:45
82  Wim RooseGoes39.17minM55   12.295  4:533.42+10:50
85  Jacky LuitwielerDynamica39.34minM45   12.207  4:553.39+11:07
87  Karel van de GruiterDynamica39.46minM55   12.146  4:563.37+11:19
89  Gerard van WissenSpirit39.55minM55   12.100  4:583.36+11:28
90  Rinus JoosseAV'5639.57minM65   12.090  4:583.36+11:30
92  Andre CrucqDynamica40.02minM55   12.065  4:583.35+11:35
93  Martin HazebroekSparta40.04minM45   12.055  4:593.35+11:37
94  Kobus BotmanDynamica40.08minM55   12.035  4:593.34+11:41
96  Rob JongenelenMiddelburg40.19minM35   11.980  5:003.33+11:52
97  Lambrecht van DijkHercules40.22minM45   11.965  5:013.32+11:55
100  John KommerDelta Sport40.38minM35   11.887  5:033.30+12:11
101  Kees MarcusseDynamica40.41minM55   11.872  5:033.30+12:14
102  Ronald de RijkeDynamica40.43minM35   11.862  5:033.30+12:16
104  Rens BodewesHercules40.50minM55   11.829  5:043.29+12:23
106  Teun de JongSpirit41.04minM45   11.761  5:063.27+12:37
107  Tanja de JongSpirit41.05minV45   11.757  5:063.27+12:38
108  Mark MulderDynamica41.08minM35   11.742  5:073.26+12:41
110  Jan BostelaarDynamica41.12minM55   11.723  5:073.26+12:45
112  Arthur van AartsenDynamica41.16minMse   11.704  5:083.25+12:49
113  Arjen de VosDelta Sport41.20minM35   11.685  5:083.25+12:53
116  Acronius KramerAV'5641.31minM55   11.634  5:093.23+13:04
117  Jan ArsRilland41.34minM65   11.620  5:103.23+13:07
118  Piet BeijerDynamica41.37minM55   11.606  5:103.22+13:10
121  Marjan SundermeijerSpirit41.54minV45   11.527  5:123.20+13:27
123  Nico EinhausSpirit42.05minM55   11.477  5:143.19+13:38
125  Piet VerhageDynamica42.11minM55   11.450  5:143.18+13:44
126  Simon LankhuyzenSparta42.15minV35   11.432  5:153.18+13:48
128  Cor MullerDelta Sport42.48minM65   11.285  5:193.13+14:21
129  Suzanne GeschiereDynamica42.52minV35   11.267  5:203.13+14:25
130  Ellie WesterweeleDynamica43.05minV55   11.211  5:213.11+14:38
131  Hugo PoorvlietDynamica43.08minM55   11.198  5:213.11+14:41
134  Co de FeijterDelta Sport43.15minM45   11.168  5:223.10+14:48
135  Gillis BosmanTHOR43.17minM65   11.159  5:233.10+14:50
136  Marly NeerbosSpado43.20minV35   11.146  5:233.10+14:53
139  Greetje SmitDelta Sport43.49minV55   11.023  5:273.06+15:22
140  Ingrid KoeneAV'5643.57minV45   10.990  5:283.05+15:30
141  Luutsen DrostSpirit44.10minM55   10.936  5:293.04+15:43
144  Ineke TempelaarVlissingen44.29minV45   10.858  5:323.02+16:02
146  Adrie van BavelLgr A Stigter44.47minM45   10.785  5:343.00+16:20
147  Erwin SchellDelta Sport44.58minM45   10.741  5:352.98+16:31
150  Mar KleingeldVlissingen45.11minV45   10.690  5:372.97+16:44
152  Joke de KosterDelta Sport45.16minV45   10.670  5:372.96+16:49
154  Adri NoordijkeZierikzee45.36minM65   10.592  5:402.94+17:09
155  Yvonne van de WeeleGoes45.48minVse   10.546  5:412.93+17:21
157  Liesbeth DorremanZierikzee46.09minVse   10.466  5:442.91+17:42
158  Marius LeendertseAV'5646.21minM55   10.421  5:452.89+17:54
159  Huguette DeclercqDynamica46.25minV55   10.406  5:462.89+17:58
162  Daan FonteineDelta Sport46.38minM65   10.357  5:482.88+18:11
163  Piet Jan LandegentDelta Sport46.41minM55   10.346  5:482.87+18:14
165  Marleen van SighemDelta Sport47.02minV35   10.269  5:512.85+18:35
166  Jan RooseGoes47.09minM55   10.244  5:512.85+18:42
172  Henny de JongeDelta Sport47.47minV35   10.108  5:562.81+19:20
173  Annelies van der PerkWestkapelle48.03minVse   10.052  5:582.79+19:36
175  Marjolein DaalenWolphaartsdijk48.08minVse   10.035  5:592.79+19:41
178  Hans van SluijsDynamica48.42minM55   9.918  6:032.75+20:15
179  Liesbeth van de PolDelta Sport48.50minVse   9.891  6:042.75+20:23
181  Lenie van KlevenVlissingen49.14minV45   9.810  6:072.73+20:47
182  Piet WijnsemaEnergie49.21minM55   9.787  6:082.72+20:54
183  Krista VoorhamBurgh-Haamstede49.24minVse   9.777  6:082.72+20:57
186  Bram de RijkeDynamica49.37minM65   9.735  6:102.70+21:10
187  Joke van de KasteeleDelta Sport49.56minVse   9.673  6:122.69+21:29
188  Evelinne HuigeBurgh-Haamstede50.27minVse   9.574  6:162.66+22:00
189  Hannie van DortPAC50.36minVse   9.545  6:172.65+22:09
190  Ineke HekkingPAC50.38minVse   9.539  6:172.65+22:11
191  Marian MolNoordgouwe51.25minVse   9.394  6:232.61+22:58
192  Heidi BontiusDelta Sport51.52minVse   9.312  6:272.59+23:25
193  Ria MarchandBurgh-Haamstede52.00minVse   9.288  6:282.58+23:33
198  Monique GelukDelta Sport53.10minVse   9.085  6:362.52+24:43
199  Magda LeijtenBurgh-Haamstede53.19minVse   9.059  6:372.52+24:52
200  Petra van de DoelDelta Sport53.45minVse   8.986  6:412.50+25:18
204  Connie MinnaardGoes56.26minVse   8.559  7:012.38+27:59
205  C van BroekhovenLille58.01minVse   8.325  7:122.31+29:34
206  Baukje van der ScheldeVrouwenpolder58.13minVse   8.297  7:142.30+29:46
Mannen: 171 (128.57%) => M35=21 - M45=29 - M55=25 - M65=8 - Mse=15 - Mtr=73
Vrouwen: 35 (26.32%) => V35=5 - V45=7 - V55=3 - Vse=20

Overzicht Top3, winnares en aantal deelnemers van aanwezige edities

JaarWinnaarTijd2eTijd 3eTijdWinnaresTijd#

8.25 km

2019Tim van den Broeke28:25Tim Pleijte28:31Yunis Stitan29:05Monica Sanderse34:27262

8.4 km

2018Aggrey Agaba28:25Tim Pleijte29:01Erwin Harmes29:30Diane van Es33:11230

8.25 km

2017Hamid El Mouaziz27:51Tim van den Broeke27:56Aggrey Agaba28:08Anjolie Engels34:52314
2016Tim Pleijte28:15Tim van den Broeke28:41Martijn de Kok29:30Anjolie Engels34:49216

8.05 km

2015Tim Pleijte27:48Tommy Staal28:00Michel van der Klein29:06Rose Enthoven-Tanui34:12215
2014Bart van Nunen27:56Ruben Scheurwater27:59Tim Pleijte28:11Laurey van den Berge33:04227
2013Tommy Staal27:49Tim Pleijte28:15Lars Gerritsen28:32Laurey van den Berge32:35240
2012Tommy Staal28:27Mike Barsaiyan28:36Jorijn de Mare28:59Abigale Regan34:42208
2011Tim Pleijte27:56Ruben Scheurwater27:57Pascal van Troost28:40Anjolie Engels32:50247
2010Wim Nieuwkerk29:19Pascal van Troost29:31Patrick Tas30:31Anjolie Engels34:13186
2009Wim Nieuwkerk29:34Michel Schrier30:06Jeroen van Dijke30:31Marianne de Kok37:31193
2008Michel van der Klein28:27Pascal van Troost28:47Joost de Klerk29:24Leonie Ton37:50206
2007Wim Padmos29:58Niels Koole30:07Michel Schrier30:19Leonie Ton36:49185
2006Kevin de Pagter30:15Robbert-Jan de Graaf30:24Coos van Buuren30:41Wendy van de Spijker35:43185
2005Danny in 't Veen29:48Hans van Beek30:00Arjan Beije30:19Andere afstand96
2004Jawad Bouazzaoui28:21Michel van der Klein28:22Arjan Beije29:53Andere afstand92
2003Yassine Abatourab28:29Michel van der Klein28:58Jawad Bouazzaoui29:16Andere afstand108
2002Said Kanfaoui28:55Ruben Scheurwater29:07Jaco Luijendijk29:35Andere afstand44

9 km

2001Eelco de Voogt30:18Maurice van Veldhoven30:34Noel Keijsers30:57Andere afstand48

8.05 km

2000Eelco de Voogt28:27Danny in 't Veen28:39Jeroen Punt29:03Andere afstand21
1999John Vermeule28:29Maurice van Veldhoven28:44Jaap de Knegt28:50Andere afstand170
1998John Vermeule28:06Jeroen Punt28:39Jan-Willem Schaar28:42Andere afstand166

Snelheid en tempo zijn berekend op de vermelde afstand. Bij een onjuiste afstand wijken deze uiteraard af!

Fouten melden via info@atletiekzeeland.nl Categorie fout? Mail dan geboortedatum. (geldt alleen voor Zeeuwen)

De server had 0.466 seconden nodig om deze lijst met 133 prestaties samen te stellen.

Terug naar boven


 
Atletiek Zeeland © 2020